Time;durP1;ratioP1;P1;durP2;ratioP2;P2;SDS_P1;SDS_P2;PMS_P1;PMS_P2;Temp;Humidity;BMP_temperature;BMP_pressure;BME280_temperature;BME280_humidity;BME280_pressure;Samples;Min_cycle;Max_cycle;Signal;HPM_P1;HPM_P2
2024/01/24 07:35:04;;;;;;;17.40;4.60;;;11.50;99.90;12.10;101616.00;;;;6336997;22;20208;-72
2024/01/24 07:37:31;;;;;;;20.93;5.67;;;11.40;99.90;12.90;101647.00;;;;6274210;22;1329421;-72
2024/01/24 07:39:57;;;;;;;8.37;2.67;;;11.50;99.90;13.00;101615.00;;;;6307388;22;20158;-71
2024/01/24 07:42:23;;;;;;;10.23;3.85;;;11.50;99.90;13.10;101679.00;;;;6305077;22;20430;-73
2024/01/24 07:44:49;;;;;;;15.87;3.97;;;11.60;99.90;12.40;101644.00;;;;6307591;22;20216;-72
2024/01/24 07:47:19;;;;;;;21.67;4.47;;;11.40;99.90;12.70;101681.00;;;;6307431;22;20138;-72
2024/01/24 07:49:47;;;;;;;8.13;2.63;;;11.50;99.90;12.30;101680.00;;;;6307451;22;20647;-73
2024/01/24 07:52:13;;;;;;;15.03;4.10;;;11.40;99.90;12.90;101637.00;;;;6307454;22;20176;-71
2024/01/24 07:54:39;;;;;;;18.77;5.57;;;11.40;99.90;12.70;101682.00;;;;6307233;22;20167;-74
2024/01/24 07:57:06;;;;;;;9.37;3.57;;;11.40;99.90;12.30;101683.00;;;;6307646;22;20137;-73
2024/01/24 07:59:32;;;;;;;29.37;6.17;;;11.40;99.90;12.10;101652.00;;;;6307262;22;20249;-73
2024/01/24 08:02:02;;;;;;;4.33;1.13;;;11.30;99.90;12.50;101702.00;;;;6307329;22;20159;-73
2024/01/24 08:04:31;;;;;;;16.10;4.77;;;11.30;99.90;12.00;101710.00;;;;6306580;22;20162;-74
2024/01/24 08:06:58;;;;;;;8.87;2.53;;;11.30;99.90;12.30;101698.00;;;;6281715;22;20167;-74
2024/01/24 08:09:27;;;;;;;22.93;4.23;;;11.30;99.90;12.40;101689.00;;;;6281263;22;20153;-74
2024/01/24 08:12:00;;;;;;;14.77;3.47;;;11.30;99.90;12.00;101714.00;;;;6306644;22;20172;-74
2024/01/24 08:14:27;;;;;;;10.50;4.47;;;11.30;99.90;12.30;101698.00;;;;6307151;22;20577;-74
2024/01/24 08:17:24;;;;;;;20.97;5.27;;;11.30;99.90;12.00;101710.00;;;;6307045;22;20223;-72
2024/01/24 08:20:27;;;;;;;11.80;2.70;;;11.30;99.90;12.60;101704.00;;;;6299672;22;20189;-74
2024/01/24 08:23:18;;;;;;;12.50;4.23;;;11.30;99.90;12.90;101710.00;;;;6306290;22;20192;-73
2024/01/24 08:25:45;;;;;;;10.57;2.73;;;11.40;99.90;12.50;101720.00;;;;6306657;22;20251;-74
2024/01/24 08:28:52;;;;;;;12.03;3.00;;;11.40;99.90;12.40;101726.00;;;;6306806;22;20217;-74
2024/01/24 08:31:25;;;;;;;13.00;5.33;;;11.50;99.90;12.50;101723.00;;;;6307250;22;20157;-74
2024/01/24 08:34:06;;;;;;;6.00;2.90;;;11.40;99.90;12.80;101750.00;;;;6280495;22;20246;-74
2024/01/24 08:36:32;;;;;;;15.33;4.50;;;11.50;99.90;12.20;101722.00;;;;6280558;22;20174;-73
2024/01/24 08:39:06;;;;;;;16.37;4.77;;;11.40;99.90;12.50;101710.00;;;;6306467;22;20235;-73
2024/01/24 08:41:33;;;;;;;11.83;3.63;;;11.40;99.90;12.40;101717.00;;;;6307000;22;20472;-73
2024/01/24 08:44:00;;;;;;;28.87;5.80;;;11.40;99.90;12.80;101732.00;;;;6281080;22;20163;-71
2024/01/24 08:46:26;;;;;;;6.20;2.73;;;11.50;99.90;12.60;101742.00;;;;6308485;22;20225;-74
2024/01/24 08:49:31;;;;;;;11.37;3.37;;;11.40;99.90;12.10;101738.00;;;;6306274;22;20611;-73
2024/01/24 08:51:57;;;;;;;30.50;4.83;;;11.40;99.90;12.80;101714.00;;;;6306476;22;20248;-74
2024/01/24 08:54:32;;;;;;;31.70;3.80;;;11.50;99.90;12.60;101754.00;;;;6308508;22;20634;-74
2024/01/24 08:56:58;;;;;;;23.20;3.57;;;11.50;99.90;12.80;101754.00;;;;6281064;22;20232;-74
2024/01/24 08:59:41;;;;;;;4.13;1.97;;;11.50;99.90;12.70;101746.00;;;;6306311;22;20170;-73
2024/01/24 09:02:26;;;;;;;4.70;1.63;;;11.40;99.90;13.30;101779.00;;;;6306332;22;20583;-74
2024/01/24 09:04:59;;;;;;;17.63;3.77;;;11.50;99.90;13.30;101736.00;;;;6281808;22;20164;-74
2024/01/24 09:07:30;;;;;;;4.73;1.47;;;11.60;99.90;13.10;101794.00;;;;6308234;22;20178;-70
2024/01/24 09:10:15;;;;;;;5.87;2.47;;;11.60;99.90;12.60;101824.00;;;;6306776;22;20233;-73
2024/01/24 09:12:42;;;;;;;40.07;7.93;;;11.50;99.90;12.90;101850.00;;;;6305534;22;20201;-74
2024/01/24 09:15:09;;;;;;;27.90;4.10;;;11.60;99.90;12.90;101841.00;;;;6305129;22;20240;-74
2024/01/24 09:17:48;;;;;;;8.13;2.40;;;11.60;99.90;12.80;101832.00;;;;6303655;22;20580;-74
2024/01/24 09:20:14;;;;;;;18.27;3.10;;;11.50;99.90;13.30;101859.00;;;;6281015;22;20476;-73
2024/01/24 09:22:44;;;;;;;9.32;2.42;;;11.60;99.90;13.10;101856.00;;;;6304707;22;20377;-74
2024/01/24 09:25:10;;;;;;;14.30;4.33;;;11.60;99.90;12.50;101813.00;;;;6304163;22;20537;-73
2024/01/24 09:27:39;;;;;;;21.93;3.27;;;11.60;99.90;12.80;101892.00;;;;6307892;22;20142;-73
2024/01/24 09:30:06;;;;;;;13.23;3.07;;;11.50;99.90;13.40;101878.00;;;;6279835;22;20154;-73
2024/01/24 09:32:32;;;;;;;24.20;5.57;;;11.70;99.90;13.30;101887.00;;;;6305781;22;20262;-74
2024/01/24 09:35:03;;;;;;;1.43;0.77;;;11.80;99.90;13.70;101896.00;;;;6306041;22;20520;-74
2024/01/24 09:37:29;;;;;;;18.60;3.90;;;11.80;99.90;13.10;101859.00;;;;6308116;22;20176;-73
2024/01/24 09:39:59;;;;;;;13.10;4.53;;;11.80;99.90;12.90;101911.00;;;;6307811;22;20177;-73
2024/01/24 09:42:29;;;;;;;7.37;2.63;;;11.70;99.90;12.80;101911.00;;;;6280713;22;20176;-73
2024/01/24 09:44:58;;;;;;;14.83;4.73;;;11.60;99.90;13.00;101887.00;;;;6255259;22;20590;-73
2024/01/24 09:47:27;;;;;;;16.63;4.37;;;11.60;99.90;13.00;101912.00;;;;6280645;22;20178;-73
2024/01/24 09:49:59;;;;;;;14.77;3.03;;;11.60;99.90;13.10;101905.00;;;;6281045;22;20450;-73
2024/01/24 09:52:26;;;;;;;10.77;3.63;;;11.70;99.90;13.60;101917.00;;;;6281254;22;20255;-74
2024/01/24 09:55:04;;;;;;;3.50;1.13;;;11.70;99.90;14.00;101942.00;;;;6280669;22;20147;-73
2024/01/24 09:57:54;;;;;;;13.10;3.20;;;12.00;99.90;13.10;101928.00;;;;6281250;22;20174;-74
2024/01/24 10:00:32;;;;;;;14.40;2.30;;;11.80;99.90;13.60;101939.00;;;;6270052;22;20192;-73
2024/01/24 10:03:02;;;;;;;13.73;4.13;;;11.80;99.90;13.00;101946.00;;;;6307995;22;20154;-73
2024/01/24 10:06:04;;;;;;;12.63;3.17;;;11.80;99.90;13.60;101954.00;;;;6280485;22;20225;-73
2024/01/24 10:08:36;;;;;;;28.77;5.03;;;11.80;99.90;13.80;101976.00;;;;6280265;22;20169;-74
2024/01/24 10:11:38;;;;;;;16.00;3.83;;;12.00;99.90;13.30;101995.00;;;;6307954;22;20152;-73
2024/01/24 10:14:50;;;;;;;11.97;0.97;;;11.90;99.90;14.10;101999.00;;;;6282650;22;20154;-73
2024/01/24 10:17:25;;;;;;;13.63;2.83;;;12.10;99.90;14.00;101986.00;;;;6307729;22;20150;-73
2024/01/24 10:20:14;;;;;;;8.10;3.40;;;12.10;99.90;13.30;102001.00;;;;6254341;22;20218;-73
2024/01/24 10:34:07;;;;;;;21.07;6.20;;;11.70;99.90;13.40;101991.00;;;;5111133;27;20521;-69
2024/01/24 10:36:35;;;;;;;17.53;3.30;;;11.90;99.90;12.90;102006.00;;;;5088662;28;20187;-72
2024/01/24 10:39:16;;;;;;;17.63;5.53;;;11.90;99.90;12.90;102024.00;;;;5061990;28;20206;-73
2024/01/24 10:41:53;;;;;;;8.47;2.53;;;12.00;99.90;13.30;102021.00;;;;5067337;28;20668;-72
2024/01/24 10:44:27;;;;;;;13.83;3.80;;;12.10;99.90;13.80;102015.00;;;;5060888;28;20271;-72
2024/01/24 10:47:02;;;;;;;11.33;3.97;;;12.20;99.90;13.70;102040.00;;;;5077149;28;20185;-72
2024/01/24 10:49:58;;;;;;;5.67;2.43;;;12.30;99.90;13.70;102031.00;;;;5054323;28;20643;-72
2024/01/24 10:52:29;;;;;;;19.43;3.97;;;12.20;99.90;13.70;102041.00;;;;5068522;28;20242;-75
2024/01/24 10:55:17;;;;;;;0.60;0.60;;;12.30;99.90;13.70;102050.00;;;;5068894;28;20186;-71
2024/01/24 10:57:56;;;;;;;6.00;0.77;;;12.30;99.90;13.60;102067.00;;;;5088313;28;20647;-71
2024/01/24 11:00:38;;;;;;;11.50;3.38;;;12.20;99.90;14.50;102079.00;;;;5078352;28;20508;-69
2024/01/24 11:03:10;;;;;;;15.70;4.07;;;12.50;99.90;14.20;102061.00;;;;5061229;28;20187;-69
2024/01/24 11:05:55;;;;;;;12.37;3.37;;;12.60;99.90;14.70;102089.00;;;;5069939;28;20561;-72
2024/01/24 11:08:59;;;;;;;12.23;5.33;;;12.70;99.90;14.60;102106.00;;;;5070707;28;20188;-71
2024/01/24 11:11:41;;;;;;;27.43;5.63;;;12.80;99.90;14.40;102091.00;;;;5070124;28;20292;-74
2024/01/24 11:14:33;;;;;;;3.20;2.10;;;12.70;99.90;14.70;102102.00;;;;5070279;28;20260;-74
2024/01/24 11:17:08;;;;;;;3.60;1.70;;;12.90;99.90;15.60;102095.00;;;;5070463;28;20177;-73
2024/01/24 11:19:58;;;;;;;6.10;2.20;;;13.10;99.90;14.80;102089.00;;;;5088525;28;20188;-73
2024/01/24 11:22:43;;;;;;;5.70;1.77;;;12.80;99.90;14.70;102075.00;;;;5069809;28;20194;-73
2024/01/24 11:25:12;;;;;;;8.07;2.47;;;13.00;99.90;14.00;102120.00;;;;5070478;28;20216;-70
2024/01/24 11:27:59;;;;;;;1.00;1.00;;;12.80;99.90;15.50;102130.00;;;;5069378;28;20184;-74
2024/01/24 11:31:07;;;;;;;8.93;2.97;;;13.20;99.90;15.30;102149.00;;;;5068643;28;20549;-76
2024/01/24 11:34:12;;;;;;;7.63;2.70;;;13.20;99.90;14.30;102157.00;;;;5050793;28;20202;-72
2024/01/24 11:36:59;;;;;;;13.13;3.17;;;12.90;99.90;14.20;102154.00;;;;5069222;28;20193;-73
2024/01/24 11:39:52;;;;;;;13.73;2.57;;;12.80;99.90;14.60;102178.00;;;;5068947;28;20204;-73
2024/01/24 11:42:43;;;;;;;3.60;0.97;;;12.90;99.90;14.90;102206.00;;;;5068390;28;20213;-74
2024/01/24 11:45:23;;;;;;;7.50;2.47;;;13.20;99.90;14.80;102190.00;;;;5056519;28;20197;-73
2024/01/24 11:47:49;;;;;;;14.73;3.83;;;13.20;99.90;14.50;102191.00;;;;5056300;28;20197;-73
2024/01/24 11:50:19;;;;;;;15.57;4.53;;;13.00;99.90;14.50;102206.00;;;;5056297;28;20193;-73
2024/01/24 11:52:46;;;;;;;8.00;3.63;;;12.90;99.90;14.10;102188.00;;;;5039683;28;20291;-74
2024/01/24 11:55:21;;;;;;;13.97;3.27;;;12.70;99.90;14.10;102136.00;;;;5056486;28;20179;-73
2024/01/24 11:58:10;;;;;;;1.67;1.13;;;12.60;99.90;14.60;102202.00;;;;5074924;28;20207;-73
2024/01/24 12:01:20;;;;;;;10.23;3.27;;;12.70;99.90;14.30;102212.00;;;;4977591;28;20206;-73
2024/01/24 12:03:48;;;;;;;7.30;2.23;;;12.70;99.90;14.80;102212.00;;;;4991252;28;20200;-74
2024/01/24 12:06:29;;;;;;;6.13;2.27;;;12.80;99.90;15.00;102222.00;;;;5051719;28;20229;-74
2024/01/24 12:09:01;;;;;;;1.93;0.97;;;13.00;99.90;14.80;102186.00;;;;5040309;28;20186;-74
2024/01/24 12:12:18;;;;;;;14.50;3.97;;;12.90;99.90;14.20;102225.00;;;;5057166;28;20205;-73
2024/01/24 12:14:48;;;;;;;13.97;1.20;;;12.90;99.90;14.80;102216.00;;;;5027698;28;20194;-73
2024/01/24 12:18:00;;;;;;;17.47;2.90;;;13.00;99.90;15.30;102228.00;;;;5015945;28;20299;-73
2024/01/24 12:20:29;;;;;;;5.10;2.20;;;13.20;99.90;14.90;102252.00;;;;5025978;28;20196;-73
2024/01/24 12:22:58;;;;;;;3.77;1.17;;;13.30;99.90;15.30;102236.00;;;;5057427;28;20194;-73
2024/01/24 12:25:39;;;;;;;8.43;2.03;;;13.20;99.90;14.50;102208.00;;;;5065326;28;20242;-73
2024/01/24 12:28:20;;;;;;;11.37;4.53;;;13.00;99.90;14.60;102258.00;;;;5056288;28;20183;-74
2024/01/24 12:31:11;;;;;;;8.40;2.30;;;13.00;99.90;14.60;102241.00;;;;5074666;28;20186;-74
2024/01/24 12:33:58;;;;;;;1.47;1.37;;;12.80;99.90;14.80;102232.00;;;;5040809;28;20268;-73
2024/01/24 12:36:55;;;;;;;3.97;2.43;;;12.80;99.90;14.30;102197.00;;;;5047581;28;20549;-73
2024/01/24 12:39:54;;;;;;;5.13;1.90;;;12.70;99.90;15.30;102235.00;;;;5056353;28;20197;-75
2024/01/24 12:42:29;;;;;;;4.73;1.47;;;13.00;99.90;14.40;102246.00;;;;5056735;28;20197;-76
2024/01/24 12:45:19;;;;;;;4.10;1.30;;;12.80;99.90;14.50;102222.00;;;;5055971;28;20225;-74
2024/01/24 12:47:57;;;;;;;6.60;2.63;;;12.80;99.90;14.30;102204.00;;;;5045411;28;20189;-74
2024/01/24 12:50:26;;;;;;;10.80;3.43;;;12.70;99.90;15.10;102247.00;;;;5076581;28;20182;-74
2024/01/24 12:53:07;;;;;;;11.70;3.60;;;12.90;99.90;14.90;102263.00;;;;5056552;28;20210;-74
2024/01/24 12:55:55;;;;;;;12.27;4.10;;;13.00;99.90;15.20;102274.00;;;;5046560;28;20225;-74
2024/01/24 12:58:24;;;;;;;10.83;2.53;;;13.10;99.90;14.40;102312.00;;;;5069510;28;20186;-74
2024/01/24 13:01:21;;;;;;;11.83;3.37;;;13.00;99.90;14.20;102274.00;;;;5058394;28;20711;-74
2024/01/24 13:03:47;;;;;;;12.83;3.50;;;12.70;99.90;14.50;102257.00;;;;5060903;28;20584;-74
2024/01/24 13:06:18;;;;;;;8.53;1.93;;;12.80;99.90;14.30;102275.00;;;;5064100;28;20183;-74
2024/01/24 13:08:53;;;;;;;5.00;1.40;;;12.70;99.90;14.60;102299.00;;;;5055542;28;20175;-74
2024/01/24 13:11:19;;;;;;;9.17;2.63;;;12.80;99.90;14.50;102296.00;;;;5054525;28;20205;-74
2024/01/24 13:13:50;;;;;;;11.33;1.97;;;12.80;99.90;14.50;102294.00;;;;5053843;28;20217;-74
2024/01/24 13:16:16;;;;;;;1.57;1.00;;;12.70;99.90;13.90;102298.00;;;;5037496;28;20281;-74
2024/01/24 13:18:42;;;;;;;12.80;2.83;;;12.60;99.90;14.60;102289.00;;;;5054769;28;20239;-74
2024/01/24 13:21:11;;;;;;;17.53;3.80;;;12.70;99.90;14.60;102314.00;;;;5054317;28;20576;-74
2024/01/24 13:23:49;;;;;;;24.37;4.63;;;12.70;99.90;14.70;102307.00;;;;5053952;28;20189;-75
2024/01/24 13:26:15;;;;;;;9.70;1.67;;;12.80;99.90;14.20;102312.00;;;;5072447;28;20244;-75
2024/01/24 13:28:41;;;;;;;4.73;2.30;;;12.60;99.90;14.50;102307.00;;;;5072263;28;20204;-75
2024/01/24 13:31:24;;;;;;;12.03;2.00;;;12.60;99.90;14.30;102309.00;;;;5054239;28;20182;-75
2024/01/24 13:33:59;;;;;;;5.90;2.03;;;12.60;99.90;15.00;102299.00;;;;5054066;28;20226;-75
2024/01/24 13:36:28;;;;;;;16.20;3.87;;;12.70;99.90;14.30;102321.00;;;;5053302;28;20299;-76
2024/01/24 13:39:18;;;;;;;10.20;1.77;;;12.70;99.90;14.70;102309.00;;;;5053550;28;20215;-71
2024/01/24 13:41:58;;;;;;;6.03;2.50;;;12.70;99.90;15.60;102336.00;;;;5038906;28;20187;-77
2024/01/24 13:44:26;;;;;;;4.63;2.20;;;12.90;99.90;15.20;102361.00;;;;5054277;28;20211;-76
2024/01/24 13:46:56;;;;;;;0.57;0.57;;;13.10;99.90;15.90;102356.00;;;;5052714;28;20193;-77
2024/01/24 13:49:29;;;;;;;4.67;0.97;;;13.20;99.90;16.10;102329.00;;;;5053735;28;20628;-77
2024/01/24 13:52:15;;;;;;;1.63;1.07;;;13.30;99.90;15.20;102377.00;;;;5051731;28;20602;-77
2024/01/24 13:54:42;;;;;;;8.90;3.13;;;12.90;99.90;14.90;102320.00;;;;5054624;28;20275;-77
2024/01/24 13:57:11;;;;;;;3.80;1.27;;;12.80;99.90;15.10;102324.00;;;;5054871;28;20638;-77
2024/01/24 13:59:51;;;;;;;12.10;1.23;;;12.80;99.90;15.00;102311.00;;;;5053830;28;20200;-78
2024/01/24 14:02:17;;;;;;;11.20;3.53;;;12.70;99.90;14.40;102329.00;;;;5053655;28;20246;-77
2024/01/24 14:04:48;;;;;;;19.33;3.03;;;12.60;99.90;15.00;102326.00;;;;5053529;28;20644;-78
2024/01/24 14:07:16;;;;;;;0.90;0.37;;;12.70;99.90;14.80;102311.00;;;;5036875;28;20193;-78
2024/01/24 14:09:43;;;;;;;6.97;2.97;;;12.60;99.90;14.80;102260.00;;;;5071854;28;20567;-78
2024/01/24 14:12:10;;;;;;;18.03;1.87;;;12.70;99.90;14.10;102288.00;;;;5072018;28;20209;-78
2024/01/24 14:14:35;;;;;;;7.53;2.17;;;12.40;99.90;14.20;102321.00;;;;5070162;28;20182;-78
2024/01/24 14:17:18;;;;;;;6.13;0.90;;;12.40;99.90;13.60;102305.00;;;;5035913;28;20185;-77
2024/01/24 14:20:04;;;;;;;8.03;2.87;;;12.30;99.90;13.40;102294.00;;;;5053269;28;21078;-77
2024/01/24 14:22:39;;;;;;;3.60;1.30;;;12.20;99.90;13.70;102282.00;;;;5052644;28;20291;-76
2024/01/24 14:25:06;;;;;;;11.90;3.23;;;12.20;99.90;13.70;102292.00;;;;5053417;28;20206;-75
2024/01/24 14:27:32;;;;;;;13.30;2.97;;;12.10;99.90;13.40;102291.00;;;;5053223;28;20187;-75
2024/01/24 14:30:14;;;;;;;4.00;2.20;;;12.10;99.90;13.60;102291.00;;;;5053753;28;20184;-75
2024/01/24 14:33:18;;;;;;;11.33;3.20;;;12.20;99.90;13.50;102276.00;;;;5037282;28;20238;-75
2024/01/24 14:35:44;;;;;;;18.27;3.07;;;12.10;99.90;13.40;102281.00;;;;5035996;28;20188;-75
2024/01/24 14:38:10;;;;;;;11.37;2.60;;;11.90;99.90;13.10;102284.00;;;;5052789;28;20662;-74
2024/01/24 14:40:38;;;;;;;6.40;2.20;;;11.90;99.90;13.50;102284.00;;;;5053375;28;20489;-75
2024/01/24 14:43:18;;;;;;;8.10;2.47;;;11.90;99.90;13.60;102284.00;;;;5071424;28;20199;-75
2024/01/24 14:45:47;;;;;;;5.77;2.97;;;11.90;99.90;13.50;102262.00;;;;5052682;28;20176;-75
2024/01/24 14:48:23;;;;;;;11.17;4.33;;;11.90;99.90;12.90;102302.00;;;;5071272;28;20261;-75
2024/01/24 14:50:58;;;;;;;5.20;2.77;;;11.80;99.90;14.10;102317.00;;;;5045188;28;20184;-75
2024/01/24 14:53:44;;;;;;;5.53;2.97;;;12.00;99.90;13.80;102321.00;;;;5071382;28;20203;-75
2024/01/24 14:56:39;;;;;;;5.23;1.93;;;12.10;99.90;13.70;102327.00;;;;5053237;28;20171;-75
2024/01/24 14:59:16;;;;;;;0.83;0.83;;;11.90;99.90;14.10;102312.00;;;;5053423;28;20634;-75
2024/01/24 15:01:47;;;;;;;20.77;4.63;;;12.10;99.90;13.20;102273.00;;;;5043073;28;20556;-75
2024/01/24 15:04:18;;;;;;;0.60;0.60;;;11.90;99.90;13.60;102315.00;;;;5070991;28;20182;-74
2024/01/24 15:06:48;;;;;;;17.50;2.87;;;11.80;99.90;13.10;102314.00;;;;5052972;28;20185;-75
2024/01/24 15:09:23;;;;;;;3.03;2.50;;;11.80;99.90;13.30;102298.00;;;;5051589;28;20216;-75
2024/01/24 15:11:59;;;;;;;4.23;2.27;;;11.70;99.90;13.60;102320.00;;;;5053546;28;20281;-75
2024/01/24 15:14:30;;;;;;;10.43;3.83;;;11.80;99.90;13.10;102312.00;;;;5053321;28;20196;-74
2024/01/24 15:17:01;;;;;;;9.97;4.43;;;11.70;99.90;13.50;102285.00;;;;5053007;28;20199;-75
2024/01/24 15:19:32;;;;;;;10.57;5.03;;;11.70;99.90;13.20;102325.00;;;;5038841;28;20193;-75
2024/01/24 15:22:05;;;;;;;5.60;2.07;;;11.70;99.90;13.10;102329.00;;;;5074463;28;20273;-75
2024/01/24 15:24:37;;;;;;;9.53;3.87;;;11.70;99.90;13.90;102327.00;;;;5040661;28;20219;-75
2024/01/24 15:27:03;;;;;;;13.90;3.83;;;11.80;99.90;13.50;102285.00;;;;5057350;28;20173;-75
2024/01/24 15:29:31;;;;;;;3.20;1.67;;;11.80;99.90;13.30;102321.00;;;;5074927;28;20218;-75
2024/01/24 15:32:00;;;;;;;6.60;2.77;;;11.70;99.90;13.50;102341.00;;;;5056309;28;20208;-74
2024/01/24 15:34:29;;;;;;;4.77;3.07;;;11.70;99.90;13.70;102325.00;;;;5056105;28;20233;-75
2024/01/24 15:36:55;;;;;;;20.23;4.83;;;11.80;99.90;13.00;102311.00;;;;5040016;28;20723;-74
2024/01/24 15:39:21;;;;;;;13.17;3.70;;;11.70;99.90;13.30;102332.00;;;;5074810;28;20286;-74
2024/01/24 15:41:50;;;;;;;13.70;4.37;;;11.70;99.90;13.40;102287.00;;;;5074366;28;20307;-74
2024/01/24 15:44:18;;;;;;;1.33;0.80;;;11.60;99.90;13.20;102328.00;;;;5055451;28;20199;-74
2024/01/24 15:46:47;;;;;;;11.97;3.67;;;11.60;99.90;12.60;102350.00;;;;5055681;28;20187;-74
2024/01/24 15:49:13;;;;;;;10.70;3.20;;;11.50;99.90;13.40;102352.00;;;;5056460;28;20191;-74
2024/01/24 15:51:39;;;;;;;15.37;5.07;;;11.60;99.90;13.10;102343.00;;;;5056115;28;20212;-74
2024/01/24 15:54:05;;;;;;;2.60;1.63;;;11.60;99.90;13.10;102352.00;;;;5055977;28;20179;-74
2024/01/24 15:56:31;;;;;;;4.37;3.23;;;11.50;99.90;12.90;102344.00;;;;5073307;28;20669;-74
2024/01/24 15:59:00;;;;;;;14.93;3.90;;;11.50;99.90;12.90;102348.00;;;;5074435;28;20186;-74
2024/01/24 16:01:28;;;;;;;12.13;2.73;;;11.50;99.90;13.30;102346.00;;;;5073842;28;20208;-74
2024/01/24 16:03:54;;;;;;;10.60;2.67;;;11.50;99.90;12.80;102335.00;;;;5056116;28;20274;-73
2024/01/24 16:06:23;;;;;;;5.93;3.37;;;11.40;99.90;13.20;102364.00;;;;5039318;28;20690;-74
2024/01/24 16:08:49;;;;;;;17.70;4.33;;;11.40;99.90;12.90;102352.00;;;;5074036;28;20184;-74
2024/01/24 16:11:17;;;;;;;4.83;2.30;;;11.40;99.90;13.20;102367.00;;;;5055421;28;20193;-74
2024/01/24 16:13:43;;;;;;;16.37;4.90;;;11.50;99.90;12.50;102352.00;;;;5055449;28;20210;-74
2024/01/24 16:16:12;;;;;;;7.30;2.43;;;11.30;99.90;12.90;102369.00;;;;5073243;28;20622;-76
2024/01/24 16:18:43;;;;;;;9.60;3.77;;;11.30;99.90;12.90;102384.00;;;;5055045;28;20190;-75
2024/01/24 16:21:11;;;;;;;19.73;5.00;;;11.40;99.90;12.80;102358.00;;;;5055519;28;20182;-75
2024/01/24 16:23:43;;;;;;;4.03;2.93;;;11.30;99.90;13.10;102368.00;;;;5055329;28;20219;-76
2024/01/24 16:26:09;;;;;;;13.77;3.10;;;11.30;99.90;13.30;102363.00;;;;5039004;28;20184;-75
2024/01/24 16:28:35;;;;;;;26.60;5.20;;;11.40;99.90;13.00;102368.00;;;;5055471;28;20192;-75
2024/01/24 16:31:09;;;;;;;6.07;2.67;;;11.40;99.90;13.20;102401.00;;;;5073376;28;20186;-75
2024/01/24 16:33:35;;;;;;;0.53;0.40;;;11.40;99.90;13.70;102396.00;;;;5055513;28;20225;-75
2024/01/24 16:36:01;;;;;;;13.03;2.83;;;11.60;99.90;13.40;102341.00;;;;5073202;28;20182;-75
2024/01/24 16:38:27;;;;;;;8.03;4.27;;;11.40;99.90;12.90;102372.00;;;;5073336;28;20711;-75
2024/01/24 16:41:02;;;;;;;15.57;4.43;;;11.30;99.90;13.40;102386.00;;;;5053758;28;20187;-75
2024/01/24 16:43:31;;;;;;;5.67;3.03;;;11.40;99.90;13.10;102360.00;;;;5053885;28;20204;-76
2024/01/24 16:45:59;;;;;;;6.40;2.53;;;11.30;99.90;13.10;102386.00;;;;5055512;28;20180;-75
2024/01/24 16:48:30;;;;;;;4.37;2.43;;;11.30;99.90;13.00;102381.00;;;;5073176;28;20221;-75
2024/01/24 16:51:02;;;;;;;1.83;1.63;;;11.20;99.90;13.70;102367.00;;;;5054579;28;20586;-75
2024/01/24 16:53:36;;;;;;;8.63;3.47;;;11.30;99.90;13.80;102389.00;;;;5072321;28;20262;-75
2024/01/24 16:56:03;;;;;;;6.27;2.67;;;11.50;99.90;12.70;102324.00;;;;5055586;28;20233;-75
2024/01/24 16:58:30;;;;;;;1.73;1.63;;;11.30;99.90;12.70;102370.00;;;;5054462;28;20189;-75
2024/01/24 17:00:56;;;;;;;0.27;0.27;;;11.10;99.90;13.60;102387.00;;;;5054771;28;20193;-76
2024/01/24 17:03:24;;;;;;;5.77;2.47;;;11.30;99.90;13.30;102407.00;;;;5054643;28;20189;-75
2024/01/24 17:05:50;;;;;;;11.80;2.50;;;11.40;99.90;13.00;102413.00;;;;5052956;28;20191;-75
2024/01/24 17:08:19;;;;;;;2.27;1.07;;;11.20;99.90;13.00;102393.00;;;;5053808;28;20646;-74
2024/01/24 17:10:48;;;;;;;1.70;1.60;;;11.20;99.90;12.90;102414.00;;;;5073086;28;20648;-75
2024/01/24 17:13:18;;;;;;;4.10;1.27;;;11.20;99.90;13.10;102395.00;;;;5054057;28;20289;-74
2024/01/24 17:15:44;;;;;;;7.80;1.77;;;11.30;99.90;12.80;102407.00;;;;5053773;28;20321;-73
2024/01/24 17:18:13;;;;;;;1.53;1.43;;;11.20;99.90;13.30;102400.00;;;;5043156;28;20176;-74
2024/01/24 17:20:39;;;;;;;14.93;1.60;;;11.30;99.90;13.10;102430.00;;;;5055847;28;20273;-75
2024/01/24 17:23:26;;;;;;;13.70;3.80;;;11.30;99.90;12.80;102421.00;;;;5039480;28;20202;-75
2024/01/24 17:25:51;;;;;;;41.20;5.07;;;11.30;99.90;12.70;102370.00;;;;5058365;28;20268;-74
2024/01/24 17:28:20;;;;;;;14.93;3.03;;;11.20;99.90;13.20;102424.00;;;;5053777;28;20194;-75
2024/01/24 17:30:47;;;;;;;11.03;2.90;;;11.40;99.90;13.30;102421.00;;;;5058892;28;20178;-75
2024/01/24 17:33:14;;;;;;;8.83;2.77;;;11.40;99.90;13.10;102426.00;;;;5051763;28;20669;-75
2024/01/24 17:35:44;;;;;;;16.53;2.87;;;11.30;99.90;13.50;102433.00;;;;5060313;28;20196;-75
2024/01/24 17:38:13;;;;;;;4.73;2.03;;;11.40;99.90;13.00;102427.00;;;;5068270;28;20191;-75
2024/01/24 17:40:48;;;;;;;5.70;3.80;;;11.30;99.90;13.30;102430.00;;;;5059477;28;20188;-75
2024/01/24 17:43:16;;;;;;;0.20;0.20;;;11.30;99.90;14.00;102432.00;;;;5069506;28;20198;-75
2024/01/24 17:45:42;;;;;;;0.60;0.60;;;11.40;99.90;13.80;102413.00;;;;5059308;28;20539;-75
2024/01/24 17:48:11;;;;;;;0.80;0.80;;;11.50;99.90;13.30;102409.00;;;;5055638;28;20181;-75
2024/01/24 17:50:40;;;;;;;0.50;0.50;;;11.50;99.90;13.00;102397.00;;;;5054641;28;20635;-72
2024/01/24 17:53:06;;;;;;;9.77;3.97;;;11.20;99.90;13.60;102445.00;;;;5072391;28;20541;-75
2024/01/24 17:55:32;;;;;;;8.90;3.97;;;11.30;99.90;13.30;102424.00;;;;5055101;28;20182;-75
2024/01/24 17:57:58;;;;;;;0.50;0.50;;;11.30;99.90;13.20;102436.00;;;;5073289;28;20274;-76
2024/01/24 18:00:23;;;;;;;2.70;1.80;;;11.30;99.90;12.70;102423.00;;;;5055100;28;20259;-75
2024/01/24 18:02:49;;;;;;;15.73;3.87;;;11.20;99.90;13.20;102424.00;;;;5034747;28;20565;-74
2024/01/24 18:05:18;;;;;;;2.67;0.90;;;11.20;99.90;12.80;102424.00;;;;5054109;28;20182;-74
2024/01/24 18:07:45;;;;;;;10.10;3.10;;;11.10;99.90;13.10;102447.00;;;;5071574;28;20194;-75
2024/01/24 18:10:11;;;;;;;0.43;0.43;;;11.20;99.90;12.80;102436.00;;;;5055863;28;20191;-75
2024/01/24 18:12:37;;;;;;;0.30;0.30;;;11.10;99.90;12.40;102396.00;;;;5054743;28;20691;-75
2024/01/24 18:15:10;;;;;;;4.77;1.90;;;10.90;99.90;14.00;102431.00;;;;5055220;28;20182;-75
2024/01/24 18:17:39;;;;;;;3.47;2.83;;;11.30;99.90;13.70;102424.00;;;;5055288;28;20190;-74
2024/01/24 18:20:06;;;;;;;17.23;3.00;;;11.30;99.90;13.10;102426.00;;;;5072649;28;20178;-74
2024/01/24 18:22:32;;;;;;;2.47;1.83;;;11.30;99.90;13.50;102446.00;;;;5071828;28;20194;-74
2024/01/24 18:25:04;;;;;;;1.80;0.70;;;11.20;99.90;13.00;102465.00;;;;5071339;28;20183;-74
2024/01/24 18:27:30;;;;;;;3.67;1.27;;;11.20;99.90;13.40;102451.00;;;;5054641;28;20185;-74
2024/01/24 18:29:59;;;;;;;8.20;2.30;;;11.20;99.90;12.70;102448.00;;;;5072923;28;20660;-74
2024/01/24 18:32:28;;;;;;;8.50;0.93;;;11.00;99.90;12.50;102418.00;;;;5054074;28;20212;-74
2024/01/24 18:34:56;;;;;;;1.33;1.17;;;10.90;99.90;13.20;102462.00;;;;5053862;28;20782;-74
2024/01/24 18:37:26;;;;;;;5.17;2.00;;;11.10;99.90;13.30;102473.00;;;;5073281;28;20234;-74
2024/01/24 18:39:51;;;;;;;7.83;3.00;;;11.10;99.90;12.30;102443.00;;;;5048466;28;20189;-74
2024/01/24 18:42:23;;;;;;;2.00;0.70;;;11.00;99.90;12.70;102468.00;;;;5071737;28;20208;-74
2024/01/24 18:44:49;;;;;;;4.63;2.93;;;10.90;99.90;12.50;102466.00;;;;5054945;28;20604;-74
2024/01/24 18:47:15;;;;;;;3.10;1.90;;;10.90;99.90;13.50;102477.00;;;;5072562;28;20265;-74
2024/01/24 18:49:44;;;;;;;8.13;2.00;;;11.10;99.90;13.10;102479.00;;;;5054866;28;20215;-74
2024/01/24 18:52:43;;;;;;;7.93;3.70;;;11.10;99.90;13.30;102492.00;;;;5054660;28;20879;-73
2024/01/24 18:55:12;;;;;;;2.40;2.13;;;11.20;99.90;12.50;102471.00;;;;5059070;28;20599;-74
2024/01/24 18:57:38;;;;;;;11.53;2.47;;;10.90;99.90;12.80;102474.00;;;;5041848;28;20182;-74